createdAt,value
2022-11-19T00:02:14.907Z,0
2022-11-19T00:07:16.486Z,0
2022-11-19T00:12:18.159Z,0
2022-11-19T00:17:19.661Z,0
2022-11-19T00:22:21.100Z,0
2022-11-19T00:27:22.936Z,0
2022-11-19T00:32:25.011Z,0
2022-11-19T00:37:26.602Z,0
2022-11-19T00:42:28.332Z,0
2022-11-19T00:47:29.866Z,0
2022-11-19T00:52:31.438Z,0
2022-11-19T00:57:32.970Z,0
2022-11-19T01:02:34.925Z,0
2022-11-19T01:07:36.506Z,0
2022-11-19T01:12:38.034Z,0
2022-11-19T01:17:39.557Z,0
2022-11-19T01:22:41.109Z,0
2022-11-19T01:27:42.606Z,0
2022-11-19T01:32:44.451Z,0
2022-11-19T01:37:45.932Z,0
2022-11-19T01:42:47.532Z,0
2022-11-19T01:47:49.111Z,0
2022-11-19T01:52:50.827Z,0
2022-11-19T01:57:52.607Z,0
2022-11-19T02:02:54.366Z,0
2022-11-19T02:07:55.936Z,0
2022-11-19T02:12:57.460Z,0
2022-11-19T02:17:59.348Z,0
2022-11-19T02:23:00.876Z,0
2022-11-19T02:28:02.336Z,0
2022-11-19T02:33:04.363Z,0
2022-11-19T02:38:05.944Z,0.88715
2022-11-19T02:43:07.453Z,0.88715
2022-11-19T02:48:09.039Z,0
2022-11-19T02:53:10.558Z,2.3237
2022-11-19T02:58:11.998Z,5.0163
2022-11-19T03:03:14.334Z,7.89335
2022-11-19T03:08:15.856Z,18.53445
2022-11-19T03:13:17.304Z,34.3763
2022-11-19T03:18:18.769Z,59.14405
2022-11-19T03:23:20.268Z,82.74995
2022-11-19T03:28:21.976Z,98.5918
2022-11-19T03:33:23.901Z,118.45355
2022-11-19T03:38:25.538Z,150.5613
2022-11-19T03:43:27.075Z,178.53885
2022-11-19T03:48:28.754Z,208.80395
2022-11-19T03:53:30.420Z,192.09685
2022-11-19T03:58:31.908Z,240.5655
2022-11-19T04:03:33.597Z,153.2576
2022-11-19T04:08:35.117Z,174.24505
2022-11-19T04:13:36.648Z,212.1449
2022-11-19T04:18:38.235Z,212.993
2022-11-19T04:23:39.756Z,241.44975
2022-11-19T04:28:41.328Z,288.09105
2022-11-19T04:33:43.222Z,316.7494
2022-11-19T04:38:44.793Z,408.77515
2022-11-19T04:43:46.316Z,491.15435
2022-11-19T04:48:48.142Z,557.4558
2022-11-19T04:53:49.764Z,583.4044
2022-11-19T04:58:51.456Z,757.42885
2022-11-19T05:03:53.397Z,873.46925
2022-11-19T05:08:54.883Z,883.7586
2022-11-19T05:13:56.405Z,986.02225
2022-11-19T05:18:57.973Z,1087.86185
2022-11-19T05:23:59.477Z,1101.6766
2022-11-19T05:29:00.952Z,1046.99365
2022-11-19T05:34:02.660Z,1075.81745
2022-11-19T05:39:04.125Z,1050.5705
2022-11-19T05:44:05.655Z,1071.02545
2022-11-19T05:49:07.485Z,1071.8754
2022-11-19T05:54:09.218Z,1081.28235
2022-11-19T05:59:10.793Z,1131.28175
2022-11-19T06:04:12.828Z,1200.27765
2022-11-19T06:09:14.559Z,1146.14805
2022-11-19T06:14:16.615Z,1326.6681
2022-11-19T06:19:18.812Z,806.50045
2022-11-19T06:24:20.662Z,1247.6966
2022-11-19T06:29:22.598Z,1244.6921
2022-11-19T06:34:24.659Z,1249.25005
2022-11-19T06:39:27.880Z,1292.1282
2022-11-19T06:44:29.357Z,1261.091
2022-11-19T06:49:31.005Z,1377.3177
2022-11-19T06:54:32.900Z,1425.51245
2022-11-19T06:59:34.792Z,1278.0377
2022-11-19T07:04:37.098Z,964.74745
2022-11-19T07:09:39.131Z,1034.2397
2022-11-19T07:14:41.083Z,1370.33685
2022-11-19T07:19:43.252Z,1302.95745
2022-11-19T07:24:45.269Z,1528.5403
2022-11-19T07:29:47.223Z,1076.032
2022-11-19T07:34:49.451Z,1624.09465
2022-11-19T07:39:51.410Z,1411.35335
2022-11-19T07:44:54.897Z,1451.55
2022-11-19T07:49:56.726Z,1484.6866
2022-11-19T07:54:58.326Z,1132.24385
2022-11-19T07:59:59.827Z,1218.52105
2022-11-19T08:05:01.793Z,1132.1354
2022-11-19T08:10:03.356Z,1092.0013
2022-11-19T08:15:05.057Z,1678.48285
2022-11-19T08:20:06.671Z,1458.7111
2022-11-19T08:25:08.369Z,1438.48045
2022-11-19T08:30:10.269Z,1403.9197
2022-11-19T08:35:12.454Z,1361.48275
2022-11-19T08:40:14.325Z,1471.36585
2022-11-19T08:45:20.635Z,1235.47145
2022-11-19T08:50:22.535Z,1669.677
2022-11-19T08:55:24.072Z,1385.129
2022-11-19T09:00:26.374Z,1900.61445
2022-11-19T09:05:28.132Z,1930.65155
2022-11-19T09:10:29.683Z,2011.766
2022-11-19T09:15:31.242Z,1928.49885
2022-11-19T09:20:32.833Z,1856.61665
2022-11-19T09:25:34.397Z,1782.20125
2022-11-19T09:30:35.873Z,1783.7204
2022-11-19T09:35:37.731Z,1607.56645
2022-11-19T09:40:39.249Z,1600.6505
2022-11-19T09:45:40.918Z,1615.6081
2022-11-19T09:50:42.949Z,1613.54115
2022-11-19T09:55:44.915Z,1685.2088
2022-11-19T10:00:46.987Z,1809.327
2022-11-19T10:05:49.288Z,1561.4832
2022-11-19T10:10:51.249Z,1064.6341
2022-11-19T10:15:53.415Z,911.74725
2022-11-19T10:20:55.530Z,1017.83105
2022-11-19T10:25:57.199Z,866.41425
2022-11-19T10:30:58.902Z,881.00295
2022-11-19T10:36:00.756Z,1143.44385
2022-11-19T10:41:02.259Z,1300.301
2022-11-19T10:46:03.900Z,872.07705
2022-11-19T10:51:06.088Z,755.22655
2022-11-19T10:56:07.596Z,860.83485
2022-11-19T11:01:09.472Z,798.0704
2022-11-19T11:06:11.377Z,1038.93435
2022-11-19T11:11:12.997Z,1220.6904
2022-11-19T11:16:14.551Z,1301.1792
2022-11-19T11:21:16.232Z,1357.47865
2022-11-19T11:26:17.859Z,1087.73945
2022-11-19T11:31:19.439Z,886.92805
2022-11-19T11:36:21.246Z,1708.15285
2022-11-19T11:46:54.920Z,1725.57355
2022-11-19T11:51:56.944Z,1765.92775
2022-11-19T11:56:58.886Z,1640.3611
2022-11-19T12:02:00.594Z,1684.3304
2022-11-19T12:07:02.650Z,841.6961
2022-11-19T12:12:04.262Z,1753.30515
2022-11-19T12:17:07.483Z,1801.95545
2022-11-19T12:22:09.151Z,776.60005
2022-11-19T12:27:11.069Z,1589.93285
2022-11-19T12:32:12.865Z,1644.03505
2022-11-19T12:37:14.565Z,1571.68255
2022-11-19T12:42:16.654Z,1444.2195
2022-11-19T12:47:18.412Z,1745.3656
2022-11-19T12:52:20.448Z,1486.9185
2022-11-19T12:57:22.236Z,1027.5309
2022-11-19T13:02:24.062Z,1187.76145
2022-11-19T13:07:26.272Z,1808.19155
2022-11-19T13:12:27.790Z,687.9973
2022-11-19T13:17:29.863Z,680.45755
2022-11-19T13:22:32.044Z,901.51305
2022-11-19T13:27:33.997Z,2070.6575
2022-11-19T13:32:35.819Z,2035.38215
2022-11-19T13:37:38.096Z,2055.38295
2022-11-19T13:42:39.900Z,2106.05945
2022-11-19T13:47:41.964Z,2092.99965
2022-11-19T13:52:43.782Z,2123.9057
2022-11-19T13:57:45.722Z,2150.20235
2022-11-19T14:02:47.637Z,2186.1437
2022-11-19T14:07:49.926Z,2183.5234
2022-11-19T14:12:51.752Z,2188.31725
2022-11-19T14:17:53.719Z,2155.96805
2022-11-19T14:22:55.652Z,2119.46965
2022-11-19T14:27:57.525Z,2097.8357
2022-11-19T14:32:59.667Z,2070.48565
2022-11-19T14:38:01.471Z,953.02655
2022-11-19T14:43:02.986Z,756.6702
2022-11-19T14:48:04.523Z,1858.122
2022-11-19T14:53:05.992Z,1573.23705
2022-11-19T14:58:07.504Z,1681.2168
2022-11-19T15:03:09.264Z,568.64655
2022-11-19T15:08:11.090Z,1553.8471
2022-11-19T15:13:12.599Z,1435.90705
2022-11-19T15:18:14.076Z,1340.3369
2022-11-19T15:23:15.808Z,1243.54975
2022-11-19T15:28:17.780Z,1115.965
2022-11-19T15:33:19.376Z,943.86105
2022-11-19T15:38:21.209Z,804.12345
2022-11-19T15:43:22.734Z,682.25665
2022-11-19T15:48:24.392Z,557.93685
2022-11-19T15:53:26.289Z,430.0212
2022-11-19T15:58:28.177Z,309.5007
2022-11-19T16:03:29.697Z,221.34655
2022-11-19T16:08:31.630Z,170.1853
2022-11-19T16:13:33.221Z,136.8777
2022-11-19T16:18:34.757Z,113.93545
2022-11-19T16:23:36.422Z,82.9344
2022-11-19T16:28:38.140Z,51.5283
2022-11-19T16:33:39.990Z,36.1105
2022-11-19T16:38:42.060Z,22.8871
2022-11-19T16:43:43.775Z,12.30115
2022-11-19T16:48:45.488Z,4.08875
2022-11-19T16:53:47.228Z,2.13325
2022-11-19T16:58:48.721Z,0.47405
2022-11-19T17:03:50.212Z,1.16185
2022-11-19T17:08:52.059Z,0.88715
2022-11-19T17:13:53.759Z,0.88715
2022-11-19T17:18:55.672Z,0.88715
2022-11-19T17:23:57.556Z,0.88715
2022-11-19T17:28:59.376Z,0.88715
2022-11-19T17:34:00.842Z,0.88715
2022-11-19T17:39:02.806Z,0.88715
2022-11-19T17:44:04.368Z,0.88715
2022-11-19T17:49:05.948Z,0
2022-11-19T17:54:07.669Z,0.88715
2022-11-19T17:59:09.310Z,0.88715
2022-11-19T18:04:10.984Z,0.88715
2022-11-19T18:09:13.139Z,0.88715
2022-11-19T18:14:15.049Z,0.88715
2022-11-19T18:19:16.606Z,0.88715
2022-11-19T18:24:18.283Z,0
2022-11-19T18:29:20.188Z,0.88715
2022-11-19T18:34:22.112Z,0.88715
2022-11-19T18:39:24.188Z,0.88715
2022-11-19T18:44:32.547Z,0
2022-11-19T18:49:34.448Z,0
2022-11-19T18:54:36.199Z,0.88715
2022-11-19T18:59:38.987Z,0
2022-11-19T19:04:41.033Z,0
2022-11-19T19:10:25.157Z,0.88715
2022-11-19T19:15:26.673Z,0.88715
2022-11-19T19:20:28.598Z,0
2022-11-19T19:25:30.137Z,0.88715
2022-11-19T19:30:31.991Z,0
2022-11-19T19:35:33.697Z,0.88715
2022-11-19T19:40:35.770Z,0.88715
2022-11-19T19:45:37.565Z,0
2022-11-19T19:50:39.421Z,0.88715
2022-11-19T19:55:41.206Z,0.88715
2022-11-19T20:00:43.082Z,0
2022-11-19T20:05:44.852Z,0
2022-11-19T20:10:46.714Z,0
2022-11-19T20:15:48.235Z,0
2022-11-19T20:20:49.725Z,0.88715
2022-11-19T20:25:51.332Z,0
2022-11-19T20:30:53.117Z,0
2022-11-19T20:35:54.630Z,0
2022-11-19T20:40:56.293Z,0
2022-11-19T20:45:57.767Z,0
2022-11-19T20:50:59.332Z,0
2022-11-19T20:56:05.260Z,0
2022-11-19T21:01:07.061Z,0
2022-11-19T21:06:08.555Z,0
2022-11-19T21:11:10.244Z,0
2022-11-19T21:16:11.864Z,0
2022-11-19T21:21:13.339Z,0
2022-11-19T21:26:14.831Z,0
2022-11-19T21:31:16.528Z,0
2022-11-19T21:36:17.993Z,0
2022-11-19T21:41:19.711Z,0
2022-11-19T21:46:21.341Z,0
2022-11-19T21:51:24.860Z,0
2022-11-19T21:56:26.791Z,0
2022-11-19T22:01:28.274Z,0
2022-11-19T22:06:29.797Z,0
2022-11-19T22:11:32.186Z,0
2022-11-19T22:16:33.872Z,0
2022-11-19T22:21:35.431Z,0
2022-11-19T22:26:37.010Z,0
2022-11-19T22:31:38.447Z,0
2022-11-19T22:36:39.973Z,0
2022-11-19T22:41:41.831Z,0
2022-11-19T22:46:43.278Z,0
2022-11-19T22:51:44.812Z,0
2022-11-19T22:56:46.278Z,0
2022-11-19T23:01:47.693Z,0.88715
2022-11-19T23:06:49.202Z,0.88715
2022-11-19T23:11:51.176Z,0
2022-11-19T23:16:52.770Z,0
2022-11-19T23:21:54.289Z,0
2022-11-19T23:26:55.731Z,0
2022-11-19T23:31:57.368Z,0
2022-11-19T23:36:59.049Z,0
2022-11-19T23:42:00.952Z,0
2022-11-19T23:47:02.382Z,0
2022-11-19T23:52:03.888Z,0
2022-11-19T23:57:05.476Z,0
